sensor_id;sensor_type;location;lat;lon;timestamp;pressure;altitude;pressure_sealevel;temperature;humidity
32033;BME280;31720;52.638;9.216;2022-08-25T00:02:14;101688.50;;;22.60;58.42
32033;BME280;31720;52.638;9.216;2022-08-25T00:05:15;101683.56;;;22.56;59.02
32033;BME280;31720;52.638;9.216;2022-08-25T00:08:16;101685.78;;;22.50;59.13
32033;BME280;31720;52.638;9.216;2022-08-25T00:11:21;101684.38;;;22.46;59.49
32033;BME280;31720;52.638;9.216;2022-08-25T00:14:25;101685.50;;;22.44;59.44
32033;BME280;31720;52.638;9.216;2022-08-25T00:17:26;101681.66;;;22.37;59.91
32033;BME280;31720;52.638;9.216;2022-08-25T00:20:28;101678.13;;;22.36;59.73
32033;BME280;31720;52.638;9.216;2022-08-25T00:23:30;101678.94;;;22.27;60.14
32033;BME280;31720;52.638;9.216;2022-08-25T00:26:32;101675.53;;;22.25;60.13
32033;BME280;31720;52.638;9.216;2022-08-25T00:29:34;101683.72;;;22.23;60.22
32033;BME280;31720;52.638;9.216;2022-08-25T00:32:37;101685.38;;;22.15;60.82
32033;BME280;31720;52.638;9.216;2022-08-25T00:35:39;101685.63;;;22.12;61.28
32033;BME280;31720;52.638;9.216;2022-08-25T00:38:43;101685.16;;;22.07;61.15
32033;BME280;31720;52.638;9.216;2022-08-25T00:41:47;101678.97;;;22.06;61.40
32033;BME280;31720;52.638;9.216;2022-08-25T00:44:49;101673.03;;;22.02;61.50
32033;BME280;31720;52.638;9.216;2022-08-25T00:47:51;101675.13;;;21.99;61.72
32033;BME280;31720;52.638;9.216;2022-08-25T00:50:52;101675.13;;;21.99;61.98
32033;BME280;31720;52.638;9.216;2022-08-25T00:53:54;101680.03;;;21.94;62.22
32033;BME280;31720;52.638;9.216;2022-08-25T00:56:58;101685.41;;;21.94;62.10
32033;BME280;31720;52.638;9.216;2022-08-25T01:00:01;101682.25;;;21.89;62.47
32033;BME280;31720;52.638;9.216;2022-08-25T01:03:05;101682.38;;;21.87;62.79
32033;BME280;31720;52.638;9.216;2022-08-25T01:06:07;101678.88;;;21.87;62.73
32033;BME280;31720;52.638;9.216;2022-08-25T01:09:12;101683.22;;;21.88;62.70
32033;BME280;31720;52.638;9.216;2022-08-25T01:12:15;101680.69;;;21.86;62.75
32033;BME280;31720;52.638;9.216;2022-08-25T01:15:16;101686.06;;;21.86;63.21
32033;BME280;31720;52.638;9.216;2022-08-25T01:18:18;101676.59;;;21.82;63.44
32033;BME280;31720;52.638;9.216;2022-08-25T01:21:23;101684.28;;;21.75;63.75
32033;BME280;31720;52.638;9.216;2022-08-25T01:24:30;101687.25;;;21.72;64.04
32033;BME280;31720;52.638;9.216;2022-08-25T01:27:35;101685.22;;;21.65;63.95
32033;BME280;31720;52.638;9.216;2022-08-25T01:30:37;101687.56;;;21.58;64.60
32033;BME280;31720;52.638;9.216;2022-08-25T01:33:39;101689.06;;;21.51;65.00
32033;BME280;31720;52.638;9.216;2022-08-25T01:36:44;101690.88;;;21.50;65.10
32033;BME280;31720;52.638;9.216;2022-08-25T01:39:45;101689.31;;;21.48;65.24
32033;BME280;31720;52.638;9.216;2022-08-25T01:43:04;101693.09;;;21.45;65.79
32033;BME280;31720;52.638;9.216;2022-08-25T01:46:07;101685.91;;;21.46;65.45
32033;BME280;31720;52.638;9.216;2022-08-25T01:49:08;101691.53;;;21.43;65.50
32033;BME280;31720;52.638;9.216;2022-08-25T01:52:15;101684.03;;;21.37;65.85
32033;BME280;31720;52.638;9.216;2022-08-25T01:55:16;101685.25;;;21.33;66.06
32033;BME280;31720;52.638;9.216;2022-08-25T01:58:19;101689.97;;;21.29;66.63
32033;BME280;31720;52.638;9.216;2022-08-25T02:01:22;101693.88;;;21.25;66.99
32033;BME280;31720;52.638;9.216;2022-08-25T02:04:24;101690.88;;;21.18;67.33
32033;BME280;31720;52.638;9.216;2022-08-25T02:07:27;101688.34;;;21.17;67.73
32033;BME280;31720;52.638;9.216;2022-08-25T02:10:28;101692.94;;;21.15;68.23
32033;BME280;31720;52.638;9.216;2022-08-25T02:13:30;101689.09;;;21.08;68.83
32033;BME280;31720;52.638;9.216;2022-08-25T02:16:35;101687.91;;;21.00;69.23
32033;BME280;31720;52.638;9.216;2022-08-25T02:19:36;101684.75;;;20.95;69.58
32033;BME280;31720;52.638;9.216;2022-08-25T02:22:39;101686.00;;;20.91;70.33
32033;BME280;31720;52.638;9.216;2022-08-25T02:25:41;101686.00;;;20.91;70.53
32033;BME280;31720;52.638;9.216;2022-08-25T02:28:42;101685.16;;;20.91;70.48
32033;BME280;31720;52.638;9.216;2022-08-25T02:31:44;101688.19;;;20.86;71.18
32033;BME280;31720;52.638;9.216;2022-08-25T02:34:47;101684.06;;;20.82;71.80
32033;BME280;31720;52.638;9.216;2022-08-25T02:37:51;101670.94;;;20.79;72.04
32033;BME280;31720;52.638;9.216;2022-08-25T02:40:53;101679.25;;;20.76;72.45
32033;BME280;31720;52.638;9.216;2022-08-25T02:43:54;101680.19;;;20.75;72.63
32033;BME280;31720;52.638;9.216;2022-08-25T02:46:55;101690.31;;;20.71;73.43
32033;BME280;31720;52.638;9.216;2022-08-25T02:49:56;101682.16;;;20.73;74.26
32033;BME280;31720;52.638;9.216;2022-08-25T02:52:59;101683.13;;;20.72;74.65
32033;BME280;31720;52.638;9.216;2022-08-25T02:56:01;101682.53;;;20.68;75.51
32033;BME280;31720;52.638;9.216;2022-08-25T02:59:03;101687.25;;;20.65;76.15
32033;BME280;31720;52.638;9.216;2022-08-25T03:02:04;101688.09;;;20.65;75.99
32033;BME280;31720;52.638;9.216;2022-08-25T03:05:06;101683.13;;;20.61;77.36
32033;BME280;31720;52.638;9.216;2022-08-25T03:08:10;101682.78;;;20.54;77.63
32033;BME280;31720;52.638;9.216;2022-08-25T03:11:11;101689.13;;;20.53;78.45
32033;BME280;31720;52.638;9.216;2022-08-25T03:14:13;101683.25;;;20.48;78.60
32033;BME280;31720;52.638;9.216;2022-08-25T03:17:15;101685.56;;;20.41;79.36
32033;BME280;31720;52.638;9.216;2022-08-25T03:20:17;101683.13;;;20.38;79.82
32033;BME280;31720;52.638;9.216;2022-08-25T03:23:19;101683.41;;;20.35;80.64
32033;BME280;31720;52.638;9.216;2022-08-25T03:26:21;101679.00;;;20.34;81.19
32033;BME280;31720;52.638;9.216;2022-08-25T03:29:40;101688.22;;;20.30;81.57
32033;BME280;31720;52.638;9.216;2022-08-25T03:32:42;101678.88;;;20.24;81.95
32033;BME280;31720;52.638;9.216;2022-08-25T03:35:44;101678.19;;;20.22;82.61
32033;BME280;31720;52.638;9.216;2022-08-25T03:38:47;101688.09;;;20.20;83.01
32033;BME280;31720;52.638;9.216;2022-08-25T03:41:49;101675.03;;;20.17;83.68
32033;BME280;31720;52.638;9.216;2022-08-25T03:44:51;101683.38;;;20.13;84.17
32033;BME280;31720;52.638;9.216;2022-08-25T03:47:52;101683.50;;;20.11;84.20
32033;BME280;31720;52.638;9.216;2022-08-25T03:50:54;101686.41;;;20.08;84.81
32033;BME280;31720;52.638;9.216;2022-08-25T03:53:57;101686.66;;;20.05;85.54
32033;BME280;31720;52.638;9.216;2022-08-25T03:56:59;101686.88;;;20.02;86.19
32033;BME280;31720;52.638;9.216;2022-08-25T04:00:01;101679.25;;;19.97;86.02
32033;BME280;31720;52.638;9.216;2022-08-25T04:03:03;101683.84;;;19.95;86.61
32033;BME280;31720;52.638;9.216;2022-08-25T04:06:06;101676.09;;;19.92;86.76
32033;BME280;31720;52.638;9.216;2022-08-25T04:09:10;101680.69;;;19.90;87.52
32033;BME280;31720;52.638;9.216;2022-08-25T04:12:11;101681.91;;;19.86;87.81
32033;BME280;31720;52.638;9.216;2022-08-25T04:15:13;101683.81;;;19.84;88.24
32033;BME280;31720;52.638;9.216;2022-08-25T04:18:14;101686.50;;;19.84;88.85
32033;BME280;31720;52.638;9.216;2022-08-25T04:21:17;101685.66;;;19.84;89.08
32033;BME280;31720;52.638;9.216;2022-08-25T04:24:20;101681.16;;;19.84;89.40
32033;BME280;31720;52.638;9.216;2022-08-25T04:27:21;101682.13;;;19.83;89.55
32033;BME280;31720;52.638;9.216;2022-08-25T04:30:23;101672.44;;;19.82;89.57
32033;BME280;31720;52.638;9.216;2022-08-25T04:33:24;101673.50;;;19.80;89.72
32033;BME280;31720;52.638;9.216;2022-08-25T04:36:25;101668.53;;;19.75;90.36
32033;BME280;31720;52.638;9.216;2022-08-25T04:39:28;101670.63;;;19.71;90.96
32033;BME280;31720;52.638;9.216;2022-08-25T04:42:30;101666.34;;;19.69;91.68
32033;BME280;31720;52.638;9.216;2022-08-25T04:45:35;101664.88;;;19.65;91.68
32033;BME280;31720;52.638;9.216;2022-08-25T04:48:37;101664.25;;;19.61;92.36
32033;BME280;31720;52.638;9.216;2022-08-25T04:51:40;101665.13;;;19.62;92.72
32033;BME280;31720;52.638;9.216;2022-08-25T04:54:43;101668.00;;;19.59;93.44
32033;BME280;31720;52.638;9.216;2022-08-25T04:57:44;101665.44;;;19.57;93.71
32033;BME280;31720;52.638;9.216;2022-08-25T05:00:46;101662.66;;;19.59;94.52
32033;BME280;31720;52.638;9.216;2022-08-25T05:03:52;101671.88;;;19.55;94.36
32033;BME280;31720;52.638;9.216;2022-08-25T05:06:54;101672.72;;;19.55;94.88
32033;BME280;31720;52.638;9.216;2022-08-25T05:09:56;101675.16;;;19.58;95.40
32033;BME280;31720;52.638;9.216;2022-08-25T05:12:58;101679.50;;;19.59;95.86
32033;BME280;31720;52.638;9.216;2022-08-25T05:16:01;101674.41;;;19.56;96.13
32033;BME280;31720;52.638;9.216;2022-08-25T05:19:02;101681.34;;;19.59;97.00
32033;BME280;31720;52.638;9.216;2022-08-25T05:22:04;101675.03;;;19.60;97.41
32033;BME280;31720;52.638;9.216;2022-08-25T05:25:07;101674.56;;;19.66;97.48
32033;BME280;31720;52.638;9.216;2022-08-25T05:28:09;101681.28;;;19.71;97.92
32033;BME280;31720;52.638;9.216;2022-08-25T05:31:12;101677.50;;;19.74;97.83
32033;BME280;31720;52.638;9.216;2022-08-25T05:34:14;101670.97;;;19.78;98.06
32033;BME280;31720;52.638;9.216;2022-08-25T05:37:16;101668.19;;;19.80;98.47
32033;BME280;31720;52.638;9.216;2022-08-25T05:40:19;101671.47;;;19.83;98.82
32033;BME280;31720;52.638;9.216;2022-08-25T05:43:20;101660.78;;;19.83;99.56
32033;BME280;31720;52.638;9.216;2022-08-25T05:46:22;101669.19;;;19.90;100.00
32033;BME280;31720;52.638;9.216;2022-08-25T05:49:24;101661.91;;;19.92;99.96
32033;BME280;31720;52.638;9.216;2022-08-25T05:52:25;101669.53;;;19.96;100.00
32033;BME280;31720;52.638;9.216;2022-08-25T05:55:28;101663.00;;;20.00;100.00
32033;BME280;31720;52.638;9.216;2022-08-25T05:58:30;101660.94;;;20.04;100.00
32033;BME280;31720;52.638;9.216;2022-08-25T06:01:31;101662.28;;;20.10;100.00
32033;BME280;31720;52.638;9.216;2022-08-25T06:04:50;101662.03;;;20.13;100.00
32033;BME280;31720;52.638;9.216;2022-08-25T06:07:52;101653.53;;;20.19;100.00
32033;BME280;31720;52.638;9.216;2022-08-25T06:10:54;101655.72;;;20.25;100.00
32033;BME280;31720;52.638;9.216;2022-08-25T06:13:55;101650.00;;;20.30;100.00
32033;BME280;31720;52.638;9.216;2022-08-25T06:16:57;101648.78;;;20.34;100.00
32033;BME280;31720;52.638;9.216;2022-08-25T06:19:59;101653.75;;;20.38;100.00
32033;BME280;31720;52.638;9.216;2022-08-25T06:23:01;101647.81;;;20.46;100.00
32033;BME280;31720;52.638;9.216;2022-08-25T06:26:04;101654.78;;;20.48;100.00
32033;BME280;31720;52.638;9.216;2022-08-25T06:29:05;101654.50;;;20.51;100.00
32033;BME280;31720;52.638;9.216;2022-08-25T06:32:07;101657.78;;;20.55;100.00
32033;BME280;31720;52.638;9.216;2022-08-25T06:35:10;101643.91;;;20.61;100.00
32033;BME280;31720;52.638;9.216;2022-08-25T06:38:12;101651.69;;;20.64;100.00
32033;BME280;31720;52.638;9.216;2022-08-25T06:41:15;101651.44;;;20.67;100.00
32033;BME280;31720;52.638;9.216;2022-08-25T06:44:16;101649.34;;;20.71;100.00
32033;BME280;31720;52.638;9.216;2022-08-25T06:47:17;101648.13;;;20.75;100.00
32033;BME280;31720;52.638;9.216;2022-08-25T06:50:19;101645.34;;;20.76;100.00
32033;BME280;31720;52.638;9.216;2022-08-25T06:53:23;101648.50;;;20.82;100.00
32033;BME280;31720;52.638;9.216;2022-08-25T06:56:25;101646.16;;;20.88;100.00
32033;BME280;31720;52.638;9.216;2022-08-25T06:59:27;101652.09;;;20.92;100.00
32033;BME280;31720;52.638;9.216;2022-08-25T07:02:28;101647.22;;;20.97;100.00
32033;BME280;31720;52.638;9.216;2022-08-25T07:05:30;101643.91;;;21.05;100.00
32033;BME280;31720;52.638;9.216;2022-08-25T07:08:32;101641.00;;;21.08;100.00
32033;BME280;31720;52.638;9.216;2022-08-25T07:11:36;101635.50;;;21.09;100.00
32033;BME280;31720;52.638;9.216;2022-08-25T07:14:38;101629.63;;;21.15;100.00
32033;BME280;31720;52.638;9.216;2022-08-25T07:17:39;101630.09;;;21.20;100.00
32033;BME280;31720;52.638;9.216;2022-08-25T07:20:41;101634.09;;;21.26;100.00
32033;BME280;31720;52.638;9.216;2022-08-25T07:23:42;101635.50;;;21.30;100.00
32033;BME280;31720;52.638;9.216;2022-08-25T07:26:45;101635.03;;;21.36;100.00
32033;BME280;31720;52.638;9.216;2022-08-25T07:29:46;101644.38;;;21.42;100.00
32033;BME280;31720;52.638;9.216;2022-08-25T07:32:49;101640.31;;;21.47;99.98
32033;BME280;31720;52.638;9.216;2022-08-25T07:36:03;101643.34;;;21.54;99.78
32033;BME280;31720;52.638;9.216;2022-08-25T07:39:03;101640.25;;;21.59;98.98
32033;BME280;31720;52.638;9.216;2022-08-25T07:42:06;101640.56;;;21.65;98.37
32033;BME280;31720;52.638;9.216;2022-08-25T07:45:10;101652.56;;;21.71;98.30
32033;BME280;31720;52.638;9.216;2022-08-25T07:48:12;101643.44;;;21.73;97.75
32033;BME280;31720;52.638;9.216;2022-08-25T07:51:13;101648.41;;;21.78;97.73
32033;BME280;31720;52.638;9.216;2022-08-25T07:54:14;101647.16;;;21.82;97.54
32033;BME280;31720;52.638;9.216;2022-08-25T07:57:17;101651.00;;;21.89;97.21
32033;BME280;31720;52.638;9.216;2022-08-25T08:00:22;101651.44;;;21.94;97.11
32033;BME280;31720;52.638;9.216;2022-08-25T08:03:26;101651.03;;;21.99;97.00
32033;BME280;31720;52.638;9.216;2022-08-25T08:06:29;101646.84;;;22.06;96.38
32033;BME280;31720;52.638;9.216;2022-08-25T08:09:30;101640.84;;;22.14;96.14
32033;BME280;31720;52.638;9.216;2022-08-25T08:12:34;101638.34;;;22.22;94.97
32033;BME280;31720;52.638;9.216;2022-08-25T08:15:36;101644.31;;;22.35;94.37
32033;BME280;31720;52.638;9.216;2022-08-25T08:18:38;101645.31;;;22.44;93.85
32033;BME280;31720;52.638;9.216;2022-08-25T08:21:39;101636.59;;;22.51;92.16
32033;BME280;31720;52.638;9.216;2022-08-25T08:24:42;101641.97;;;22.61;91.36
32033;BME280;31720;52.638;9.216;2022-08-25T08:27:45;101629.56;;;22.70;91.61
32033;BME280;31720;52.638;9.216;2022-08-25T08:30:47;101629.16;;;22.74;90.62
32033;BME280;31720;52.638;9.216;2022-08-25T08:33:50;101630.72;;;22.87;90.58
32033;BME280;31720;52.638;9.216;2022-08-25T08:36:52;101636.09;;;22.96;89.12
32033;BME280;31720;52.638;9.216;2022-08-25T08:39:55;101624.69;;;23.04;88.48
32033;BME280;31720;52.638;9.216;2022-08-25T08:43:04;101616.22;;;23.09;87.75
32033;BME280;31720;52.638;9.216;2022-08-25T08:46:06;101606.75;;;23.14;87.83
32033;BME280;31720;52.638;9.216;2022-08-25T08:49:15;101611.94;;;23.25;86.49
32033;BME280;31720;52.638;9.216;2022-08-25T08:52:28;101614.75;;;23.34;86.20
32033;BME280;31720;52.638;9.216;2022-08-25T08:55:38;101611.66;;;23.38;86.13
32033;BME280;31720;52.638;9.216;2022-08-25T08:58:44;101604.88;;;23.44;84.93
32033;BME280;31720;52.638;9.216;2022-08-25T09:01:48;101610.63;;;23.59;84.22
32033;BME280;31720;52.638;9.216;2022-08-25T09:04:55;101611.31;;;23.70;82.46
32033;BME280;31720;52.638;9.216;2022-08-25T09:08:03;101606.50;;;23.74;81.77
32033;BME280;31720;52.638;9.216;2022-08-25T09:11:11;101594.34;;;23.79;80.60
32033;BME280;31720;52.638;9.216;2022-08-25T09:14:24;101595.06;;;23.82;81.19
32033;BME280;31720;52.638;9.216;2022-08-25T09:17:40;101597.41;;;23.94;79.14
32033;BME280;31720;52.638;9.216;2022-08-25T09:20:58;101595.41;;;23.96;77.96
32033;BME280;31720;52.638;9.216;2022-08-25T09:24:25;101593.13;;;24.01;77.46
32033;BME280;31720;52.638;9.216;2022-08-25T09:27:35;101582.19;;;24.13;77.06
32033;BME280;31720;52.638;9.216;2022-08-25T09:30:48;101588.63;;;24.20;77.57
32033;BME280;31720;52.638;9.216;2022-08-25T09:33:54;101578.53;;;24.32;76.28
32033;BME280;31720;52.638;9.216;2022-08-25T09:36:56;101578.34;;;24.43;75.95
32033;BME280;31720;52.638;9.216;2022-08-25T09:39:57;101577.44;;;24.52;74.99
32033;BME280;31720;52.638;9.216;2022-08-25T09:43:01;101572.53;;;24.65;74.63
32033;BME280;31720;52.638;9.216;2022-08-25T09:46:11;101564.78;;;24.80;73.60
32033;BME280;31720;52.638;9.216;2022-08-25T09:49:13;101562.47;;;24.85;73.16
32033;BME280;31720;52.638;9.216;2022-08-25T09:52:37;101566.13;;;24.84;73.09
32033;BME280;31720;52.638;9.216;2022-08-25T09:55:40;101565.53;;;24.90;72.09
32033;BME280;31720;52.638;9.216;2022-08-25T09:58:42;101564.25;;;25.02;71.85
32033;BME280;31720;52.638;9.216;2022-08-25T10:01:48;101551.16;;;24.99;70.89
32033;BME280;31720;52.638;9.216;2022-08-25T10:04:50;101548.28;;;25.01;71.92
32033;BME280;31720;52.638;9.216;2022-08-25T10:07:55;101548.13;;;25.20;71.42
32033;BME280;31720;52.638;9.216;2022-08-25T10:10:59;101542.81;;;25.28;70.99
32033;BME280;31720;52.638;9.216;2022-08-25T10:14:04;101534.13;;;25.35;70.21
32033;BME280;31720;52.638;9.216;2022-08-25T10:17:14;101526.03;;;25.35;70.05
32033;BME280;31720;52.638;9.216;2022-08-25T10:20:19;101524.13;;;25.53;69.69
32033;BME280;31720;52.638;9.216;2022-08-25T10:23:25;101519.81;;;25.68;68.15
32033;BME280;31720;52.638;9.216;2022-08-25T10:26:35;101508.28;;;25.76;67.36
32033;BME280;31720;52.638;9.216;2022-08-25T10:29:53;101508.31;;;25.92;65.46
32033;BME280;31720;52.638;9.216;2022-08-25T10:33:13;101504.97;;;25.98;66.03
32033;BME280;31720;52.638;9.216;2022-08-25T10:36:20;101504.13;;;26.06;66.55
32033;BME280;31720;52.638;9.216;2022-08-25T10:39:35;101501.84;;;26.27;65.04
32033;BME280;31720;52.638;9.216;2022-08-25T10:42:53;101485.84;;;26.42;64.84
32033;BME280;31720;52.638;9.216;2022-08-25T10:46:05;101472.53;;;26.41;63.32
32033;BME280;31720;52.638;9.216;2022-08-25T10:49:13;101464.28;;;26.26;63.78
32033;BME280;31720;52.638;9.216;2022-08-25T10:52:22;101461.75;;;26.16;64.49
32033;BME280;31720;52.638;9.216;2022-08-25T10:55:33;101457.38;;;26.31;64.23
32033;BME280;31720;52.638;9.216;2022-08-25T10:58:50;101449.94;;;26.34;63.84
32033;BME280;31720;52.638;9.216;2022-08-25T11:05:31;101447.31;;;26.66;62.81
32033;BME280;31720;52.638;9.216;2022-08-25T11:08:39;101444.59;;;26.58;63.35
32033;BME280;31720;52.638;9.216;2022-08-25T11:11:47;101448.94;;;26.43;63.42
32033;BME280;31720;52.638;9.216;2022-08-25T11:14:53;101445.06;;;26.37;62.89
32033;BME280;31720;52.638;9.216;2022-08-25T11:18:01;101445.78;;;26.72;63.56
32033;BME280;31720;52.638;9.216;2022-08-25T11:21:09;101438.25;;;27.06;62.37
32033;BME280;31720;52.638;9.216;2022-08-25T11:24:15;101443.34;;;27.01;61.07
32033;BME280;31720;52.638;9.216;2022-08-25T11:27:30;101436.66;;;26.81;61.34
32033;BME280;31720;52.638;9.216;2022-08-25T11:30:33;101431.97;;;26.67;60.86
32033;BME280;31720;52.638;9.216;2022-08-25T11:33:34;101427.41;;;26.67;61.19
32033;BME280;31720;52.638;9.216;2022-08-25T11:36:41;101422.66;;;26.86;60.20
32033;BME280;31720;52.638;9.216;2022-08-25T11:40:13;101415.53;;;27.09;59.43
32033;BME280;31720;52.638;9.216;2022-08-25T11:43:28;101412.97;;;27.55;58.52
32033;BME280;31720;52.638;9.216;2022-08-25T11:46:43;101408.94;;;27.51;57.68
32033;BME280;31720;52.638;9.216;2022-08-25T11:49:50;101416.63;;;27.39;57.99
32033;BME280;31720;52.638;9.216;2022-08-25T11:52:55;101404.56;;;27.50;58.23
32033;BME280;31720;52.638;9.216;2022-08-25T11:55:58;101406.59;;;27.48;57.37
32033;BME280;31720;52.638;9.216;2022-08-25T11:59:03;101402.06;;;27.79;56.60
32033;BME280;31720;52.638;9.216;2022-08-25T12:02:05;101392.75;;;28.28;55.01
32033;BME280;31720;52.638;9.216;2022-08-25T12:05:09;101391.56;;;28.68;53.32
32033;BME280;31720;52.638;9.216;2022-08-25T12:08:12;101403.56;;;29.03;52.20
32033;BME280;31720;52.638;9.216;2022-08-25T12:11:53;101390.38;;;29.00;51.70
32033;BME280;31720;52.638;9.216;2022-08-25T12:15:13;101384.59;;;29.18;50.57
32033;BME280;31720;52.638;9.216;2022-08-25T12:18:41;101380.81;;;29.34;50.06
32033;BME280;31720;52.638;9.216;2022-08-25T12:21:44;101379.56;;;29.00;50.49
32033;BME280;31720;52.638;9.216;2022-08-25T12:24:50;101375.53;;;28.67;51.33
32033;BME280;31720;52.638;9.216;2022-08-25T12:28:01;101373.81;;;28.28;51.89
32033;BME280;31720;52.638;9.216;2022-08-25T12:31:15;101368.56;;;28.12;52.35
32033;BME280;31720;52.638;9.216;2022-08-25T12:34:37;101363.31;;;28.71;51.54
32033;BME280;31720;52.638;9.216;2022-08-25T12:37:56;101356.53;;;29.41;49.16
32033;BME280;31720;52.638;9.216;2022-08-25T12:41:02;101358.72;;;29.52;48.03
32033;BME280;31720;52.638;9.216;2022-08-25T12:44:15;101358.56;;;29.53;48.29
32033;BME280;31720;52.638;9.216;2022-08-25T12:47:28;101355.56;;;30.06;47.42
32033;BME280;31720;52.638;9.216;2022-08-25T12:50:38;101341.28;;;30.40;46.90
32033;BME280;31720;52.638;9.216;2022-08-25T12:53:42;101351.97;;;30.48;47.00
32033;BME280;31720;52.638;9.216;2022-08-25T12:56:49;101352.47;;;30.30;45.55
32033;BME280;31720;52.638;9.216;2022-08-25T12:59:54;101343.50;;;30.08;46.57
32033;BME280;31720;52.638;9.216;2022-08-25T13:03:19;101344.03;;;29.76;46.49
32033;BME280;31720;52.638;9.216;2022-08-25T13:06:38;101340.47;;;29.97;46.58
32033;BME280;31720;52.638;9.216;2022-08-25T13:10:16;101326.34;;;29.80;46.98
32033;BME280;31720;52.638;9.216;2022-08-25T13:13:36;101319.78;;;29.68;48.10
32033;BME280;31720;52.638;9.216;2022-08-25T13:16:39;101333.38;;;29.96;47.65
32033;BME280;31720;52.638;9.216;2022-08-25T13:20:09;101333.75;;;29.93;45.92
32033;BME280;31720;52.638;9.216;2022-08-25T13:23:11;101327.63;;;29.84;46.90
32033;BME280;31720;52.638;9.216;2022-08-25T13:26:14;101328.00;;;30.24;46.26
32033;BME280;31720;52.638;9.216;2022-08-25T13:29:20;101328.16;;;30.72;45.68
32033;BME280;31720;52.638;9.216;2022-08-25T13:32:29;101320.59;;;31.15;43.37
32033;BME280;31720;52.638;9.216;2022-08-25T13:35:31;101315.09;;;31.56;43.07
32033;BME280;31720;52.638;9.216;2022-08-25T13:38:32;101303.00;;;31.72;41.73
32033;BME280;31720;52.638;9.216;2022-08-25T13:41:33;101298.22;;;31.81;41.75
32033;BME280;31720;52.638;9.216;2022-08-25T13:44:36;101298.88;;;31.90;41.31
32033;BME280;31720;52.638;9.216;2022-08-25T13:47:40;101292.78;;;32.01;40.75
32033;BME280;31720;52.638;9.216;2022-08-25T13:50:42;101288.59;;;32.18;40.48
32033;BME280;31720;52.638;9.216;2022-08-25T13:53:52;101284.00;;;32.39;41.07
32033;BME280;31720;52.638;9.216;2022-08-25T13:57:03;101282.53;;;32.10;40.96
32033;BME280;31720;52.638;9.216;2022-08-25T14:00:08;101277.06;;;32.36;40.86
32033;BME280;31720;52.638;9.216;2022-08-25T14:03:28;101275.97;;;32.64;39.79
32033;BME280;31720;52.638;9.216;2022-08-25T14:06:31;101280.34;;;32.71;39.74
32033;BME280;31720;52.638;9.216;2022-08-25T14:09:38;101272.50;;;32.43;39.60
32033;BME280;31720;52.638;9.216;2022-08-25T14:12:42;101269.94;;;32.55;39.05
32033;BME280;31720;52.638;9.216;2022-08-25T14:15:46;101259.28;;;32.27;39.36
32033;BME280;31720;52.638;9.216;2022-08-25T14:18:50;101255.09;;;32.31;39.45
32033;BME280;31720;52.638;9.216;2022-08-25T14:21:53;101252.53;;;32.63;38.97
32033;BME280;31720;52.638;9.216;2022-08-25T14:24:58;101248.16;;;32.62;37.97
32033;BME280;31720;52.638;9.216;2022-08-25T14:28:01;101247.09;;;32.63;38.49
32033;BME280;31720;52.638;9.216;2022-08-25T14:31:06;101247.22;;;32.81;37.87
32033;BME280;31720;52.638;9.216;2022-08-25T14:34:13;101242.56;;;32.88;37.43
32033;BME280;31720;52.638;9.216;2022-08-25T14:37:17;101229.56;;;32.90;38.00
32033;BME280;31720;52.638;9.216;2022-08-25T14:40:20;101237.97;;;32.95;38.16
32033;BME280;31720;52.638;9.216;2022-08-25T14:43:21;101233.28;;;33.09;37.86
32033;BME280;31720;52.638;9.216;2022-08-25T14:46:26;101232.25;;;33.03;38.49
32033;BME280;31720;52.638;9.216;2022-08-25T14:49:31;101230.53;;;33.09;38.00
32033;BME280;31720;52.638;9.216;2022-08-25T14:52:33;101221.38;;;32.97;37.86
32033;BME280;31720;52.638;9.216;2022-08-25T14:55:35;101223.75;;;32.93;37.91
32033;BME280;31720;52.638;9.216;2022-08-25T14:58:36;101224.13;;;32.97;37.86
32033;BME280;31720;52.638;9.216;2022-08-25T15:01:40;101224.84;;;32.72;37.82
32033;BME280;31720;52.638;9.216;2022-08-25T15:04:41;101217.66;;;32.40;38.17
32033;BME280;31720;52.638;9.216;2022-08-25T15:07:43;101211.41;;;32.13;38.97
32033;BME280;31720;52.638;9.216;2022-08-25T15:11:02;101210.94;;;32.29;39.12
32033;BME280;31720;52.638;9.216;2022-08-25T15:14:03;101205.50;;;32.36;39.05
32033;BME280;31720;52.638;9.216;2022-08-25T15:17:06;101197.72;;;32.46;39.54
32033;BME280;31720;52.638;9.216;2022-08-25T15:20:08;101193.72;;;32.55;38.23
32033;BME280;31720;52.638;9.216;2022-08-25T15:23:10;101185.09;;;32.65;37.80
32033;BME280;31720;52.638;9.216;2022-08-25T15:26:12;101194.53;;;32.62;37.98
32033;BME280;31720;52.638;9.216;2022-08-25T15:29:14;101193.72;;;32.55;38.70
32033;BME280;31720;52.638;9.216;2022-08-25T15:32:17;101188.09;;;32.50;38.80
32033;BME280;31720;52.638;9.216;2022-08-25T15:35:18;101187.88;;;32.51;38.60
32033;BME280;31720;52.638;9.216;2022-08-25T15:38:19;101185.78;;;32.47;38.70
32033;BME280;31720;52.638;9.216;2022-08-25T15:41:21;101184.56;;;32.36;39.05
32033;BME280;31720;52.638;9.216;2022-08-25T15:44:22;101182.75;;;32.10;39.22
32033;BME280;31720;52.638;9.216;2022-08-25T15:47:26;101186.75;;;32.01;39.65
32033;BME280;31720;52.638;9.216;2022-08-25T15:50:28;101176.06;;;32.06;39.87
32033;BME280;31720;52.638;9.216;2022-08-25T15:53:29;101176.06;;;32.06;39.68
32033;BME280;31720;52.638;9.216;2022-08-25T15:56:31;101180.66;;;32.12;39.41
32033;BME280;31720;52.638;9.216;2022-08-25T15:59:32;101172.72;;;32.04;39.54
32033;BME280;31720;52.638;9.216;2022-08-25T16:02:35;101169.81;;;31.92;40.08
32033;BME280;31720;52.638;9.216;2022-08-25T16:05:38;101166.91;;;31.87;40.23
32033;BME280;31720;52.638;9.216;2022-08-25T16:08:39;101155.59;;;31.70;40.31